createdAt,value
2018-01-15T00:00:30.062Z,0
2018-01-15T00:01:30.285Z,0
2018-01-15T00:02:30.009Z,0
2018-01-15T00:03:30.222Z,0
2018-01-15T00:04:29.701Z,0
2018-01-15T00:05:29.673Z,0
2018-01-15T00:06:29.639Z,0
2018-01-15T00:07:29.863Z,0
2018-01-15T00:08:29.828Z,0
2018-01-15T00:09:29.872Z,0
2018-01-15T00:10:29.529Z,0
2018-01-15T00:11:29.750Z,0
2018-01-15T00:12:29.575Z,0
2018-01-15T00:13:29.441Z,0
2018-01-15T00:14:29.162Z,0
2018-01-15T00:15:29.625Z,0
2018-01-15T00:16:29.842Z,0
2018-01-15T00:17:29.075Z,0
2018-01-15T00:18:29.045Z,0
2018-01-15T00:19:29.760Z,0
2018-01-15T00:20:29.242Z,0
2018-01-15T00:21:29.458Z,0
2018-01-15T00:22:29.682Z,0
2018-01-15T00:23:29.162Z,0
2018-01-15T00:24:29.135Z,0
2018-01-15T00:25:29.606Z,0
2018-01-15T00:26:29.580Z,0
2018-01-15T00:27:29.559Z,0
2018-01-15T00:28:29.533Z,0
2018-01-15T00:29:29.512Z,0
2018-01-15T00:30:29.253Z,0
2018-01-15T00:31:29.464Z,0
2018-01-15T00:32:29.444Z,0
2018-01-15T00:33:29.430Z,0
2018-01-15T00:34:28.664Z,0
2018-01-15T00:35:29.371Z,0
2018-01-15T00:36:29.358Z,0
2018-01-15T00:37:29.084Z,0
2018-01-15T00:38:29.312Z,0
2018-01-15T00:39:28.787Z,0
2018-01-15T00:40:29.254Z,0
2018-01-15T00:41:28.734Z,0
2018-01-15T00:42:29.197Z,0
2018-01-15T00:43:28.929Z,0
2018-01-15T00:44:28.898Z,0
2018-01-15T00:45:29.129Z,0
2018-01-15T00:46:28.850Z,0
2018-01-15T00:47:28.836Z,0
2018-01-15T00:48:28.786Z,0
2018-01-15T00:49:28.777Z,0
2018-01-15T00:50:28.748Z,0
2018-01-15T00:51:28.475Z,0
2018-01-15T00:52:28.696Z,0
2018-01-15T00:53:28.913Z,0
2018-01-15T00:54:28.398Z,0
2018-01-15T00:55:28.678Z,0
2018-01-15T00:56:28.846Z,0
2018-01-15T00:57:28.864Z,0
2018-01-15T00:58:28.790Z,0
2018-01-15T00:59:28.322Z,0
2018-01-15T01:00:28.257Z,0
2018-01-15T01:01:28.715Z,0
2018-01-15T01:02:28.211Z,0
2018-01-15T01:03:28.424Z,0
2018-01-15T01:04:28.656Z,0
2018-01-15T01:05:28.635Z,0
2018-01-15T01:06:28.609Z,0
2018-01-15T01:07:28.343Z,0
2018-01-15T01:08:27.823Z,0
2018-01-15T01:09:28.397Z,0
2018-01-15T01:10:28.276Z,0
2018-01-15T01:11:28.253Z,0
2018-01-15T01:12:27.739Z,0
2018-01-15T01:13:27.959Z,0
2018-01-15T01:14:28.235Z,0
2018-01-15T01:15:28.201Z,0
2018-01-15T01:16:28.124Z,0
2018-01-15T01:17:28.098Z,0
2018-01-15T01:18:28.073Z,0
2018-01-15T01:19:28.288Z,0
2018-01-15T01:20:28.267Z,0
2018-01-15T01:21:28.245Z,0
2018-01-15T01:22:28.219Z,0
2018-01-15T01:23:28.193Z,0
2018-01-15T01:24:27.676Z,0
2018-01-15T01:25:27.886Z,0
2018-01-15T01:26:27.618Z,0
2018-01-15T01:27:27.834Z,0
2018-01-15T01:28:27.803Z,0
2018-01-15T01:29:27.286Z,0
2018-01-15T01:30:27.513Z,0
2018-01-15T01:31:27.232Z,0
2018-01-15T01:32:27.455Z,0
2018-01-15T01:33:27.679Z,0
2018-01-15T01:34:27.154Z,0
2018-01-15T01:35:27.865Z,0
2018-01-15T01:36:27.589Z,0
2018-01-15T01:37:27.803Z,0
2018-01-15T01:38:27.786Z,0
2018-01-15T01:39:27.025Z,0
2018-01-15T01:40:27.733Z,0
2018-01-15T01:41:27.462Z,0
2018-01-15T01:42:27.186Z,0
2018-01-15T01:43:27.415Z,0
2018-01-15T01:44:27.143Z,0
2018-01-15T01:45:27.426Z,0
2018-01-15T01:46:27.343Z,0
2018-01-15T01:47:27.311Z,0
2018-01-15T01:48:27.533Z,0
2018-01-15T01:49:27.265Z,0
2018-01-15T01:50:26.993Z,0
2018-01-15T01:51:27.209Z,0
2018-01-15T01:52:26.942Z,0
2018-01-15T01:53:27.160Z,0
2018-01-15T01:54:27.136Z,0
2018-01-15T01:55:26.862Z,0
2018-01-15T01:56:27.084Z,0
2018-01-15T01:57:27.057Z,0
2018-01-15T01:58:27.034Z,0
2018-01-15T01:59:26.769Z,0
2018-01-15T02:00:27.344Z,0
2018-01-15T02:01:26.719Z,0
2018-01-15T02:02:26.973Z,0
2018-01-15T02:03:27.166Z,0
2018-01-15T02:04:26.885Z,0
2018-01-15T02:05:26.856Z,0
2018-01-15T02:06:27.080Z,0
2018-01-15T02:07:27.045Z,0
2018-01-15T02:08:27.041Z,0
2018-01-15T02:09:26.251Z,0
2018-01-15T02:10:26.968Z,0
2018-01-15T02:11:26.445Z,0
2018-01-15T02:12:26.915Z,0
2018-01-15T02:13:26.638Z,0
2018-01-15T02:14:26.366Z,0
2018-01-15T02:15:26.865Z,0
2018-01-15T02:16:26.311Z,0
2018-01-15T02:17:26.280Z,0
2018-01-15T02:18:26.737Z,0
2018-01-15T02:19:26.466Z,0
2018-01-15T02:20:26.442Z,0
2018-01-15T02:21:26.660Z,0
2018-01-15T02:22:26.628Z,0
2018-01-15T02:23:26.355Z,0
2018-01-15T02:24:26.330Z,0
2018-01-15T02:25:26.048Z,0
2018-01-15T02:26:26.511Z,0
2018-01-15T02:27:26.233Z,0
2018-01-15T02:28:26.452Z,0
2018-01-15T02:29:26.426Z,0
2018-01-15T02:30:26.410Z,0
2018-01-15T02:31:26.378Z,0
2018-01-15T02:32:26.154Z,0
2018-01-15T02:33:26.085Z,0
2018-01-15T02:34:26.291Z,0
2018-01-15T02:35:26.262Z,0
2018-01-15T02:36:26.003Z,0
2018-01-15T02:37:26.211Z,0
2018-01-15T02:38:25.945Z,0
2018-01-15T02:39:25.918Z,0
2018-01-15T02:40:25.886Z,0
2018-01-15T02:41:26.107Z,0
2018-01-15T02:42:26.079Z,0
2018-01-15T02:43:26.111Z,0
2018-01-15T02:44:26.030Z,0
2018-01-15T02:45:25.752Z,0
2018-01-15T02:46:25.725Z,0
2018-01-15T02:47:25.699Z,0
2018-01-15T02:48:25.928Z,0
2018-01-15T02:49:25.913Z,0
2018-01-15T02:50:25.687Z,0
2018-01-15T02:51:25.606Z,0
2018-01-15T02:52:25.579Z,0
2018-01-15T02:53:25.802Z,0
2018-01-15T02:54:25.537Z,0
2018-01-15T02:55:25.497Z,0
2018-01-15T02:56:25.218Z,0
2018-01-15T02:57:25.437Z,0
2018-01-15T02:58:25.652Z,0
2018-01-15T02:59:25.381Z,0
2018-01-15T03:00:25.760Z,0
2018-01-15T03:01:25.117Z,0
2018-01-15T03:02:25.300Z,0
2018-01-15T03:03:25.519Z,0
2018-01-15T03:04:24.996Z,0
2018-01-15T03:05:25.219Z,0
2018-01-15T03:06:25.193Z,0
2018-01-15T03:07:25.168Z,0
2018-01-15T03:08:25.146Z,0
2018-01-15T03:09:25.366Z,0
2018-01-15T03:10:25.341Z,0
2018-01-15T03:11:24.819Z,0
2018-01-15T03:12:25.041Z,0
2018-01-15T03:13:25.265Z,0
2018-01-15T03:14:25.238Z,0
2018-01-15T03:15:25.216Z,0
2018-01-15T03:16:25.183Z,0
2018-01-15T03:17:25.163Z,0
2018-01-15T03:18:24.886Z,0
2018-01-15T03:19:24.869Z,0
2018-01-15T03:20:24.847Z,0
2018-01-15T03:21:25.066Z,0
2018-01-15T03:22:24.557Z,0
2018-01-15T03:23:25.025Z,0
2018-01-15T03:24:25.000Z,0
2018-01-15T03:25:24.970Z,0
2018-01-15T03:26:24.770Z,0
2018-01-15T03:27:24.445Z,0
2018-01-15T03:28:24.418Z,0
2018-01-15T03:29:24.398Z,0
2018-01-15T03:30:24.616Z,0
2018-01-15T03:31:24.840Z,0
2018-01-15T03:32:24.564Z,0
2018-01-15T03:33:24.517Z,0
2018-01-15T03:34:24.491Z,0
2018-01-15T03:35:24.219Z,0
2018-01-15T03:36:24.439Z,0
2018-01-15T03:37:24.647Z,0
2018-01-15T03:38:24.375Z,0
2018-01-15T03:39:24.349Z,0
2018-01-15T03:40:23.827Z,0
2018-01-15T03:41:24.541Z,0
2018-01-15T03:42:23.774Z,0
2018-01-15T03:43:24.239Z,0
2018-01-15T03:44:24.214Z,0
2018-01-15T03:45:24.178Z,0
2018-01-15T03:46:24.147Z,0
2018-01-15T03:47:24.122Z,0
2018-01-15T03:48:23.852Z,0
2018-01-15T03:49:23.820Z,0
2018-01-15T03:50:24.280Z,0
2018-01-15T03:51:24.269Z,0
2018-01-15T03:52:24.232Z,0
2018-01-15T03:53:23.711Z,0
2018-01-15T03:54:23.938Z,0
2018-01-15T03:55:24.149Z,0
2018-01-15T03:56:23.874Z,0
2018-01-15T03:57:23.843Z,0
2018-01-15T03:58:23.580Z,0
2018-01-15T03:59:23.793Z,0
2018-01-15T04:00:23.760Z,0
2018-01-15T04:01:23.736Z,0
2018-01-15T04:02:23.459Z,0
2018-01-15T04:03:23.688Z,0
2018-01-15T04:04:23.649Z,0
2018-01-15T04:05:23.619Z,0
2018-01-15T04:06:23.845Z,0
2018-01-15T04:07:23.567Z,0
2018-01-15T04:08:23.787Z,0
2018-01-15T04:09:23.514Z,0
2018-01-15T04:10:23.238Z,0
2018-01-15T04:11:23.714Z,0
2018-01-15T04:12:23.671Z,0
2018-01-15T04:13:23.637Z,0
2018-01-15T04:14:23.609Z,0
2018-01-15T04:15:23.337Z,0
2018-01-15T04:16:22.827Z,0
2018-01-15T04:17:23.541Z,0
2018-01-15T04:18:23.501Z,0
2018-01-15T04:19:22.987Z,0
2018-01-15T04:20:23.272Z,0
2018-01-15T04:21:23.419Z,0
2018-01-15T04:22:23.141Z,0
2018-01-15T04:23:23.362Z,0
2018-01-15T04:24:23.346Z,0
2018-01-15T04:25:23.311Z,0
2018-01-15T04:26:23.025Z,0
2018-01-15T04:27:23.003Z,0
2018-01-15T04:28:22.726Z,0
2018-01-15T04:29:22.697Z,0
2018-01-15T04:30:22.909Z,0
2018-01-15T04:31:23.131Z,0
2018-01-15T04:32:23.109Z,0
2018-01-15T04:33:22.832Z,0
2018-01-15T04:34:23.049Z,0
2018-01-15T04:35:22.530Z,0
2018-01-15T04:36:22.748Z,0
2018-01-15T04:37:22.710Z,0
2018-01-15T04:38:22.929Z,0
2018-01-15T04:39:22.911Z,0
2018-01-15T04:40:22.870Z,0
2018-01-15T04:41:22.598Z,0
2018-01-15T04:42:22.813Z,0
2018-01-15T04:43:22.549Z,0
2018-01-15T04:44:22.515Z,0
2018-01-15T04:45:22.743Z,0
2018-01-15T04:46:22.457Z,0
2018-01-15T04:47:22.188Z,0
2018-01-15T04:48:22.157Z,0
2018-01-15T04:49:22.382Z,0
2018-01-15T04:50:22.404Z,0
2018-01-15T04:51:22.337Z,0
2018-01-15T04:52:22.327Z,0
2018-01-15T04:53:22.268Z,0
2018-01-15T04:54:22.491Z,0
2018-01-15T04:55:21.965Z,0
2018-01-15T04:56:22.501Z,0
2018-01-15T04:57:21.917Z,0
2018-01-15T04:58:22.129Z,0
2018-01-15T04:59:21.854Z,0
2018-01-15T05:00:22.322Z,0
2018-01-15T05:01:22.286Z,0
2018-01-15T05:02:22.262Z,0
2018-01-15T05:03:21.989Z,0
2018-01-15T05:04:22.205Z,0
2018-01-15T05:05:22.182Z,0
2018-01-15T05:06:22.152Z,0
2018-01-15T05:07:21.633Z,0
2018-01-15T05:08:21.605Z,0
2018-01-15T05:09:22.065Z,0
2018-01-15T05:10:22.039Z,0
2018-01-15T05:11:21.832Z,0
2018-01-15T05:12:21.988Z,0
2018-01-15T05:13:21.958Z,0
2018-01-15T05:14:21.933Z,0
2018-01-15T05:15:21.902Z,0
2018-01-15T05:16:21.871Z,0
2018-01-15T05:17:21.597Z,0
2018-01-15T05:18:21.570Z,0
2018-01-15T05:19:21.301Z,0
2018-01-15T05:20:21.520Z,0
2018-01-15T05:21:21.834Z,0
2018-01-15T05:22:21.233Z,0
2018-01-15T05:23:21.680Z,0
2018-01-15T05:24:21.415Z,0
2018-01-15T05:25:21.130Z,0
2018-01-15T05:26:21.598Z,0
2018-01-15T05:27:21.572Z,0
2018-01-15T05:28:21.307Z,0
2018-01-15T05:29:21.275Z,0
2018-01-15T05:30:21.248Z,0
2018-01-15T05:31:21.455Z,0
2018-01-15T05:32:21.186Z,0
2018-01-15T05:33:21.398Z,0
2018-01-15T05:34:21.371Z,0
2018-01-15T05:35:21.095Z,0
2018-01-15T05:36:21.071Z,0
2018-01-15T05:37:21.298Z,0
2018-01-15T05:38:21.120Z,0
2018-01-15T05:39:21.229Z,0
2018-01-15T05:40:20.964Z,0
2018-01-15T05:41:21.179Z,0
2018-01-15T05:42:20.662Z,0
2018-01-15T05:43:20.904Z,0
2018-01-15T05:44:21.094Z,0
2018-01-15T05:45:21.071Z,0
2018-01-15T05:46:21.042Z,0
2018-01-15T05:47:21.010Z,0
2018-01-15T05:48:20.982Z,0
2018-01-15T05:49:20.715Z,0
2018-01-15T05:50:20.689Z,0
2018-01-15T05:51:20.900Z,0
2018-01-15T05:52:20.630Z,0
2018-01-15T05:53:20.851Z,0
2018-01-15T05:54:20.819Z,0
2018-01-15T05:55:20.789Z,0
2018-01-15T05:56:20.518Z,0
2018-01-15T05:57:20.505Z,0
2018-01-15T05:58:20.810Z,0
2018-01-15T05:59:20.428Z,0
2018-01-15T06:00:20.662Z,0
2018-01-15T06:01:20.377Z,0
2018-01-15T06:02:20.604Z,0
2018-01-15T06:03:19.830Z,0
2018-01-15T06:04:20.546Z,0
2018-01-15T06:05:20.264Z,0
2018-01-15T06:06:20.480Z,0
2018-01-15T06:07:20.054Z,0
2018-01-15T06:08:20.427Z,0
2018-01-15T06:09:20.150Z,0
2018-01-15T06:10:20.133Z,0
2018-01-15T06:11:20.348Z,0
2018-01-15T06:12:20.072Z,0
2018-01-15T06:13:20.375Z,0
2018-01-15T06:14:20.266Z,0
2018-01-15T06:15:19.737Z,0
2018-01-15T06:16:20.198Z,0
2018-01-15T06:17:20.180Z,0
2018-01-15T06:18:19.665Z,0
2018-01-15T06:19:19.897Z,0
2018-01-15T06:20:19.601Z,0
2018-01-15T06:21:20.064Z,0
2018-01-15T06:22:20.036Z,0
2018-01-15T06:23:20.010Z,0
2018-01-15T06:24:19.738Z,0
2018-01-15T06:25:19.712Z,0
2018-01-15T06:26:19.929Z,0
2018-01-15T06:27:19.905Z,0
2018-01-15T06:28:19.632Z,0
2018-01-15T06:29:19.853Z,0
2018-01-15T06:30:19.576Z,0
2018-01-15T06:31:19.048Z,0
2018-01-15T06:32:19.763Z,0
2018-01-15T06:33:19.494Z,0
2018-01-15T06:34:19.455Z,0
2018-01-15T06:35:19.187Z,0
2018-01-15T06:36:19.404Z,0
2018-01-15T06:37:19.152Z,0
2018-01-15T06:38:19.594Z,0
2018-01-15T06:39:19.319Z,0
2018-01-15T06:40:19.298Z,0
2018-01-15T06:41:19.265Z,0
2018-01-15T06:42:19.244Z,0
2018-01-15T06:43:19.464Z,0
2018-01-15T06:44:19.526Z,0
2018-01-15T06:45:19.403Z,0
2018-01-15T06:46:19.381Z,0
2018-01-15T06:47:19.103Z,0
2018-01-15T06:48:19.323Z,0
2018-01-15T06:49:19.297Z,0
2018-01-15T06:50:19.266Z,0
2018-01-15T06:51:19.244Z,0
2018-01-15T06:52:19.252Z,0
2018-01-15T06:53:18.741Z,0
2018-01-15T06:54:18.908Z,0
2018-01-15T06:55:18.880Z,0
2018-01-15T06:56:19.505Z,0
2018-01-15T06:57:19.331Z,0
2018-01-15T06:58:18.858Z,0
2018-01-15T06:59:19.029Z,0
2018-01-15T07:00:18.980Z,0
2018-01-15T07:01:18.963Z,0
2018-01-15T07:02:18.925Z,0
2018-01-15T07:03:18.654Z,0
2018-01-15T07:04:18.387Z,0
2018-01-15T07:05:18.593Z,0
2018-01-15T07:06:18.813Z,0
2018-01-15T07:07:18.799Z,0
2018-01-15T07:08:18.510Z,0
2018-01-15T07:09:18.726Z,0
2018-01-15T07:10:18.499Z,0
2018-01-15T07:11:18.430Z,0
2018-01-15T07:12:18.635Z,0
2018-01-15T07:13:18.617Z,0
2018-01-15T07:14:18.692Z,0
2018-01-15T07:15:18.553Z,0
2018-01-15T07:16:18.283Z,5
2018-01-15T07:17:18.306Z,5
2018-01-15T07:18:17.977Z,5
2018-01-15T07:19:17.946Z,5
2018-01-15T07:20:18.424Z,10
2018-01-15T07:21:18.161Z,10
2018-01-15T07:22:18.358Z,10
2018-01-15T07:23:18.081Z,15
2018-01-15T07:24:18.298Z,15
2018-01-15T07:25:18.033Z,15
2018-01-15T07:26:18.241Z,20
2018-01-15T07:27:17.975Z,20
2018-01-15T07:28:18.187Z,20
2018-01-15T07:29:17.917Z,25
2018-01-15T07:30:18.128Z,25
2018-01-15T07:31:18.102Z,25
2018-01-15T07:32:18.067Z,25
2018-01-15T07:33:18.041Z,30
2018-01-15T07:34:17.523Z,30
2018-01-15T07:35:17.737Z,30
2018-01-15T07:36:17.716Z,30
2018-01-15T07:37:17.927Z,30
2018-01-15T07:38:17.905Z,30
2018-01-15T07:39:17.618Z,35
2018-01-15T07:40:17.841Z,35
2018-01-15T07:41:17.570Z,35
2018-01-15T07:42:17.297Z,35
2018-01-15T07:43:17.758Z,40
2018-01-15T07:44:17.555Z,40
2018-01-15T07:45:17.216Z,40
2018-01-15T07:46:17.420Z,45
2018-01-15T07:47:17.614Z,45
2018-01-15T07:48:17.612Z,50
2018-01-15T07:49:17.619Z,50
2018-01-15T07:50:17.620Z,55
2018-01-15T07:51:17.038Z,60
2018-01-15T07:52:17.506Z,60
2018-01-15T07:53:17.230Z,65
2018-01-15T07:54:17.438Z,70
2018-01-15T07:55:17.413Z,70
2018-01-15T07:56:17.142Z,70
2018-01-15T07:57:17.111Z,75
2018-01-15T07:58:17.089Z,75
2018-01-15T07:59:17.304Z,80
2018-01-15T08:00:17.030Z,80
2018-01-15T08:01:16.757Z,85
2018-01-15T08:02:16.972Z,90
2018-01-15T08:03:17.258Z,90
2018-01-15T08:04:17.162Z,95
2018-01-15T08:05:16.894Z,95
2018-01-15T08:06:16.858Z,100
2018-01-15T08:07:17.082Z,100
2018-01-15T08:08:17.068Z,100
2018-01-15T08:09:17.020Z,105
2018-01-15T08:10:17.002Z,105
2018-01-15T08:11:16.732Z,110
2018-01-15T08:12:16.706Z,110
2018-01-15T08:13:16.915Z,115
2018-01-15T08:14:16.402Z,115
2018-01-15T08:15:16.678Z,120
2018-01-15T08:16:16.885Z,120
2018-01-15T08:17:16.815Z,120
2018-01-15T08:18:16.545Z,125
2018-01-15T08:19:16.811Z,125
2018-01-15T08:20:16.750Z,125
2018-01-15T08:21:16.468Z,125
2018-01-15T08:22:16.467Z,125
2018-01-15T08:23:16.671Z,125
2018-01-15T08:24:16.590Z,125
2018-01-15T08:25:16.359Z,125
2018-01-15T08:26:16.089Z,125
2018-01-15T08:27:16.553Z,125
2018-01-15T08:28:16.280Z,125
2018-01-15T08:29:16.361Z,120
2018-01-15T08:30:16.533Z,120
2018-01-15T08:31:16.239Z,120
2018-01-15T08:32:17.514Z,115
2018-01-15T08:33:16.524Z,115
2018-01-15T08:34:16.361Z,115
2018-01-15T08:35:16.171Z,120
2018-01-15T08:36:16.311Z,120
2018-01-15T08:37:16.284Z,120
2018-01-15T08:38:16.263Z,120
2018-01-15T08:39:16.225Z,125
2018-01-15T08:40:16.204Z,125
2018-01-15T08:41:15.812Z,125
2018-01-15T08:42:16.035Z,125
2018-01-15T08:43:17.003Z,130
2018-01-15T08:44:15.848Z,135
2018-01-15T08:45:16.849Z,130
2018-01-15T08:46:16.047Z,135
2018-01-15T08:47:16.015Z,135
2018-01-15T08:48:16.030Z,140
2018-01-15T08:49:15.958Z,145
2018-01-15T08:50:15.196Z,145
2018-01-15T08:51:15.903Z,150
2018-01-15T08:52:15.392Z,150
2018-01-15T08:53:15.858Z,155
2018-01-15T08:54:15.621Z,160
2018-01-15T08:55:15.554Z,160
2018-01-15T08:56:15.529Z,165
2018-01-15T08:57:15.504Z,170
2018-01-15T08:58:15.471Z,170
2018-01-15T08:59:15.701Z,175
2018-01-15T09:00:15.172Z,175
2018-01-15T09:01:15.820Z,175
2018-01-15T09:02:15.622Z,175
2018-01-15T09:03:15.400Z,175
2018-01-15T09:04:15.335Z,170
2018-01-15T09:05:15.048Z,165
2018-01-15T09:06:15.014Z,160
2018-01-15T09:07:15.481Z,160
2018-01-15T09:08:15.460Z,160
2018-01-15T09:09:15.440Z,155
2018-01-15T09:10:15.401Z,155
2018-01-15T09:11:15.375Z,155
2018-01-15T09:12:15.143Z,155
2018-01-15T09:13:15.362Z,160
2018-01-15T09:14:15.620Z,160
2018-01-15T09:15:14.663Z,160
2018-01-15T09:16:14.965Z,165
2018-01-15T09:17:14.482Z,165
2018-01-15T09:18:14.486Z,170
2018-01-15T09:19:15.063Z,170
2018-01-15T09:20:15.534Z,170
2018-01-15T09:21:15.995Z,175
2018-01-15T09:22:14.841Z,180
2018-01-15T09:23:14.809Z,185
2018-01-15T09:24:14.788Z,190
2018-01-15T09:25:14.755Z,195
2018-01-15T09:26:14.719Z,200
2018-01-15T09:27:14.454Z,205
2018-01-15T09:28:14.921Z,215
2018-01-15T09:29:14.651Z,220
2018-01-15T09:30:14.623Z,230
2018-01-15T09:31:14.592Z,235
2018-01-15T09:32:14.070Z,240
2018-01-15T09:33:14.715Z,240
2018-01-15T09:34:14.534Z,245
2018-01-15T09:35:14.495Z,250
2018-01-15T09:36:16.036Z,255
2018-01-15T09:37:15.760Z,255
2018-01-15T09:38:14.157Z,260
2018-01-15T09:39:14.380Z,260
2018-01-15T09:40:14.599Z,265
2018-01-15T09:41:14.579Z,270
2018-01-15T09:42:14.307Z,270
2018-01-15T09:43:14.590Z,275
2018-01-15T09:44:14.250Z,275
2018-01-15T09:45:14.471Z,275
2018-01-15T09:46:13.979Z,270
2018-01-15T09:47:13.926Z,270
2018-01-15T09:48:14.146Z,265
2018-01-15T09:49:14.130Z,260
2018-01-15T09:50:13.849Z,255
2018-01-15T09:51:14.316Z,255
2018-01-15T09:52:14.045Z,250
2018-01-15T09:53:14.258Z,250
2018-01-15T09:54:13.991Z,250
2018-01-15T09:55:14.268Z,250
2018-01-15T09:56:13.937Z,255
2018-01-15T09:57:14.156Z,255
2018-01-15T09:58:13.637Z,260
2018-01-15T09:59:14.190Z,265
2018-01-15T10:00:13.588Z,270
2018-01-15T10:01:14.056Z,275
2018-01-15T10:02:13.791Z,280
2018-01-15T10:03:14.004Z,290
2018-01-15T10:04:13.544Z,305
2018-01-15T10:05:13.709Z,310
2018-01-15T10:06:13.696Z,315
2018-01-15T10:07:13.914Z,320
2018-01-15T10:08:13.386Z,330
2018-01-15T10:09:13.742Z,335
2018-01-15T10:10:13.825Z,345
2018-01-15T10:11:13.560Z,350
2018-01-15T10:12:13.779Z,360
2018-01-15T10:13:13.741Z,365
2018-01-15T10:14:13.724Z,365
2018-01-15T10:15:13.700Z,370
2018-01-15T10:16:13.429Z,370
2018-01-15T10:17:13.644Z,370
2018-01-15T10:18:13.385Z,365
2018-01-15T10:19:13.602Z,360
2018-01-15T10:20:13.072Z,360
2018-01-15T10:21:13.538Z,355
2018-01-15T10:22:13.272Z,350
2018-01-15T10:23:13.256Z,340
2018-01-15T10:24:12.986Z,335
2018-01-15T10:25:13.444Z,330
2018-01-15T10:26:13.175Z,325
2018-01-15T10:27:12.947Z,320
2018-01-15T10:28:13.222Z,315
2018-01-15T10:29:13.344Z,320
2018-01-15T10:30:13.076Z,315
2018-01-15T10:31:13.047Z,310
2018-01-15T10:32:12.529Z,310
2018-01-15T10:33:13.240Z,310
2018-01-15T10:34:12.969Z,310
2018-01-15T10:35:12.950Z,310
2018-01-15T10:36:12.921Z,310
2018-01-15T10:37:13.138Z,315
2018-01-15T10:38:12.873Z,320
2018-01-15T10:39:13.087Z,325
2018-01-15T10:40:12.819Z,335
2018-01-15T10:41:12.549Z,335
2018-01-15T10:42:12.773Z,335
2018-01-15T10:43:12.993Z,340
2018-01-15T10:44:12.476Z,335
2018-01-15T10:45:12.940Z,335
2018-01-15T10:46:12.675Z,335
2018-01-15T10:47:12.641Z,330
2018-01-15T10:48:12.877Z,325
2018-01-15T10:49:12.116Z,315
2018-01-15T10:50:12.324Z,315
2018-01-15T10:51:12.542Z,315
2018-01-15T10:52:12.270Z,315
2018-01-15T10:53:12.495Z,315
2018-01-15T10:54:11.732Z,315
2018-01-15T10:55:12.733Z,315
2018-01-15T10:56:13.278Z,320
2018-01-15T10:57:12.756Z,320
2018-01-15T10:58:13.058Z,320
2018-01-15T10:59:12.348Z,325
2018-01-15T11:00:12.070Z,330
2018-01-15T11:01:12.535Z,335
2018-01-15T11:02:12.606Z,340
2018-01-15T11:03:12.493Z,345
2018-01-15T11:04:12.217Z,355
2018-01-15T11:05:12.443Z,355
2018-01-15T11:06:12.420Z,355
2018-01-15T11:07:11.899Z,355
2018-01-15T11:08:12.119Z,355
2018-01-15T11:09:11.846Z,350
2018-01-15T11:10:12.070Z,345
2018-01-15T11:11:12.060Z,340
2018-01-15T11:12:11.550Z,340
2018-01-15T11:13:12.280Z,335
2018-01-15T11:14:12.075Z,335
2018-01-15T11:15:11.986Z,340
2018-01-15T11:16:12.209Z,345
2018-01-15T11:17:11.961Z,350
2018-01-15T11:18:11.875Z,355
2018-01-15T11:19:12.200Z,360
2018-01-15T11:20:11.823Z,365
2018-01-15T11:21:12.046Z,370
2018-01-15T11:22:12.015Z,375
2018-01-15T11:23:11.750Z,375
2018-01-15T11:24:11.905Z,385
2018-01-15T11:25:11.944Z,385
2018-01-15T11:26:11.793Z,385
2018-01-15T11:27:11.650Z,390
2018-01-15T11:28:11.909Z,390
2018-01-15T11:29:11.593Z,390
2018-01-15T11:30:11.567Z,385
2018-01-15T11:31:11.301Z,385
2018-01-15T11:32:11.531Z,375
2018-01-15T11:33:11.746Z,365
2018-01-15T11:34:11.470Z,355
2018-01-15T11:35:11.449Z,320
2018-01-15T11:36:11.679Z,300
2018-01-15T11:37:11.649Z,290
2018-01-15T11:38:11.379Z,290
2018-01-15T11:39:11.354Z,290
2018-01-15T11:40:11.080Z,290
2018-01-15T11:41:11.545Z,295
2018-01-15T11:42:11.281Z,300
2018-01-15T11:43:11.258Z,310
2018-01-15T11:44:11.226Z,315
2018-01-15T11:45:11.451Z,315
2018-01-15T11:46:11.181Z,315
2018-01-15T11:47:11.399Z,315
2018-01-15T11:48:11.414Z,315
2018-01-15T11:49:11.110Z,315
2018-01-15T11:50:10.840Z,315
2018-01-15T11:51:11.306Z,320
2018-01-15T11:52:11.033Z,325
2018-01-15T11:53:11.026Z,325
2018-01-15T11:54:11.002Z,325
2018-01-15T11:55:11.236Z,320
2018-01-15T11:56:11.187Z,315
2018-01-15T11:57:11.162Z,310
2018-01-15T11:58:10.695Z,300
2018-01-15T11:59:11.114Z,295
2018-01-15T12:00:10.839Z,280
2018-01-15T12:01:10.818Z,270
2018-01-15T12:02:11.032Z,260
2018-01-15T12:03:10.762Z,260
2018-01-15T12:04:10.737Z,260
2018-01-15T12:05:10.472Z,275
2018-01-15T12:06:10.746Z,290
2018-01-15T12:07:10.664Z,305
2018-01-15T12:08:10.394Z,315
2018-01-15T12:09:10.866Z,320
2018-01-15T12:10:10.347Z,315
2018-01-15T12:11:10.838Z,300
2018-01-15T12:12:10.792Z,280
2018-01-15T12:13:10.269Z,275
2018-01-15T12:14:10.571Z,270
2018-01-15T12:15:10.465Z,270
2018-01-15T12:16:10.447Z,245
2018-01-15T12:17:10.167Z,230
2018-01-15T12:18:10.677Z,245
2018-01-15T12:19:10.133Z,250
2018-01-15T12:20:10.158Z,270
2018-01-15T12:21:10.428Z,270
2018-01-15T12:22:10.296Z,280
2018-01-15T12:23:10.567Z,275
2018-01-15T12:24:10.000Z,285
2018-01-15T12:25:10.221Z,310
2018-01-15T12:26:10.335Z,340
2018-01-15T12:27:09.934Z,365
2018-01-15T12:28:10.142Z,375
2018-01-15T12:29:10.371Z,375
2018-01-15T12:30:09.912Z,365
2018-01-15T12:31:10.323Z,350
2018-01-15T12:32:10.045Z,345
2018-01-15T12:33:10.268Z,335
2018-01-15T12:34:09.996Z,335
2018-01-15T12:35:09.978Z,335
2018-01-15T12:36:10.201Z,340
2018-01-15T12:37:10.175Z,350
2018-01-15T12:38:10.198Z,360
2018-01-15T12:39:10.112Z,365
2018-01-15T12:40:09.641Z,370
2018-01-15T12:41:09.579Z,350
2018-01-15T12:42:09.555Z,330
2018-01-15T12:43:10.028Z,290
2018-01-15T12:44:09.781Z,250
2018-01-15T12:45:09.725Z,250
2018-01-15T12:46:09.453Z,250
2018-01-15T12:47:09.674Z,245
2018-01-15T12:48:09.648Z,245
2018-01-15T12:49:09.867Z,270
2018-01-15T12:50:09.693Z,300
2018-01-15T12:51:09.574Z,325
2018-01-15T12:52:09.794Z,325
2018-01-15T12:53:09.528Z,305
2018-01-15T12:54:09.758Z,305
2018-01-15T12:55:09.723Z,280
2018-01-15T12:56:09.699Z,275
2018-01-15T12:57:09.670Z,280
2018-01-15T12:58:09.400Z,310
2018-01-15T12:59:09.128Z,345
2018-01-15T13:00:09.105Z,350
2018-01-15T13:01:09.080Z,325
2018-01-15T13:02:09.299Z,325
2018-01-15T13:03:09.325Z,300
2018-01-15T13:04:09.251Z,325
2018-01-15T13:05:09.229Z,390
2018-01-15T13:06:09.200Z,405
2018-01-15T13:07:09.176Z,410
2018-01-15T13:08:09.159Z,395
2018-01-15T13:09:09.131Z,345
2018-01-15T13:10:10.121Z,290
2018-01-15T13:11:09.331Z,310
2018-01-15T13:12:09.057Z,335
2018-01-15T13:13:09.948Z,360
2018-01-15T13:14:11.659Z,355
2018-01-15T13:15:09.230Z,340
2018-01-15T13:16:09.104Z,330
2018-01-15T13:17:09.178Z,315
2018-01-15T13:18:09.150Z,300
2018-01-15T13:19:08.889Z,300
2018-01-15T13:20:08.858Z,295
2018-01-15T13:21:08.606Z,280
2018-01-15T13:22:09.059Z,270
2018-01-15T13:23:09.035Z,270
2018-01-15T13:24:09.004Z,270
2018-01-15T13:25:08.978Z,265
2018-01-15T13:26:08.957Z,255
2018-01-15T13:27:08.692Z,250
2018-01-15T13:28:08.668Z,220
2018-01-15T13:29:08.893Z,195
2018-01-15T13:30:08.920Z,180
2018-01-15T13:31:08.692Z,190
2018-01-15T13:32:08.813Z,225
2018-01-15T13:33:08.543Z,250
2018-01-15T13:34:08.027Z,250
2018-01-15T13:35:08.885Z,220
2018-01-15T13:36:08.468Z,205
2018-01-15T13:37:08.445Z,160
2018-01-15T13:38:08.174Z,160
2018-01-15T13:39:08.397Z,155
2018-01-15T13:40:08.616Z,180
2018-01-15T13:41:08.732Z,170
2018-01-15T13:42:08.319Z,170
2018-01-15T13:43:08.051Z,195
2018-01-15T13:44:08.272Z,190
2018-01-15T13:45:08.525Z,170
2018-01-15T13:46:08.233Z,150
2018-01-15T13:47:08.196Z,110
2018-01-15T13:48:08.166Z,100
2018-01-15T13:49:08.383Z,110
2018-01-15T13:50:08.112Z,105
2018-01-15T13:51:08.339Z,120
2018-01-15T13:52:08.073Z,120
2018-01-15T13:53:07.792Z,115
2018-01-15T13:54:07.770Z,110
2018-01-15T13:55:08.242Z,100
2018-01-15T13:56:08.063Z,95
2018-01-15T13:57:07.691Z,80
2018-01-15T13:58:07.919Z,70
2018-01-15T13:59:07.886Z,80
2018-01-15T14:00:07.858Z,85
2018-01-15T14:01:08.085Z,90
2018-01-15T14:02:07.566Z,90
2018-01-15T14:03:08.023Z,80
2018-01-15T14:04:07.756Z,75
2018-01-15T14:05:07.449Z,65
2018-01-15T14:06:07.699Z,65
2018-01-15T14:07:07.674Z,65
2018-01-15T14:08:07.652Z,55
2018-01-15T14:09:07.619Z,60
2018-01-15T14:10:07.711Z,60
2018-01-15T14:11:07.564Z,65
2018-01-15T14:12:07.298Z,75
2018-01-15T14:13:08.249Z,80
2018-01-15T14:14:07.804Z,85
2018-01-15T14:15:07.465Z,90
2018-01-15T14:16:07.686Z,95
2018-01-15T14:17:07.411Z,90
2018-01-15T14:18:07.386Z,85